Terminal Aerodrome Forecast
Issued by NWS

Current Version | Previous Version | Text Only | Print | Product List | Glossary Off
Versions: 1 2 3 4 5 6 7 8 9 10 11 12 13 14 15 16 17

742
FTUS41 KPBZ 171720
TAFHLG
TAF
KHLG 171720Z 1718/1818 23007KT P6SM SCT250
     FM181500 22010G18KT P6SM SCT035=

USA.gov is the U.S. government's official web portal to all federal, state and local government web resources and services.